Terminal Aerodrome Forecast
Issued by NWS

Home | Current Version | Previous Version | Text Only | Print | Product List | Glossary On
Versions: 1 2 3 4 5 6 7 8 9 10 11 12 13 14 15 16 17 18 19 20 21 22 23 24 25 26 27 28 29 30 31 32
207
FTUS43 KLSX 301659 AAF
TAFUIN
TAF AMD
KUIN 301659Z 3017/3112 VRB04KT P6SM SCT027 BKN040
     FM302300 VRB04KT P6SM SCT040=

USA.gov is the U.S. government's official web portal to all federal, state and local government web resources and services.